Time;durP1;ratioP1;P1;durP2;ratioP2;P2;SDS_P1;SDS_P2;PMS_P1;PMS_P2;Temp;Humidity;BMP_temperature;BMP_pressure;BME280_temperature;BME280_humidity;BME280_pressure;Samples;Min_cycle;Max_cycle;Signal;HPM_P1;HPM_P2
2023/01/28 00:01:11;;;;;;;1999.90;999.90;;;1.70;99.90;;;;;;5056611;28;20124;-73
2023/01/28 00:03:37;;;;;;;1999.90;999.90;;;1.70;99.90;;;;;;5056839;28;20037;-73
2023/01/28 00:06:06;;;;;;;1999.90;999.90;;;1.70;99.90;;;;;;5056969;28;20068;-74
2023/01/28 00:08:32;;;;;;;1999.90;999.90;;;1.70;99.90;;;;;;5055795;28;20038;-74
2023/01/28 00:11:03;;;;;;;1999.90;999.90;;;1.60;99.90;;;;;;5056730;28;20483;-74
2023/01/28 00:13:29;;;;;;;1999.90;999.90;;;1.60;99.90;;;;;;5057009;28;20025;-74
2023/01/28 00:15:59;;;;;;;1999.90;999.90;;;1.60;99.90;;;;;;5057078;28;20037;-74
2023/01/28 00:18:26;;;;;;;1999.90;999.90;;;1.70;99.90;;;;;;5055263;28;20044;-74
2023/01/28 00:20:59;;;;;;;1999.90;999.90;;;1.70;99.90;;;;;;5055169;28;20553;-74
2023/01/28 00:23:31;;;;;;;1999.90;999.90;;;1.70;99.90;;;;;;5055618;28;20091;-74
2023/01/28 00:26:01;;;;;;;1999.90;999.90;;;1.70;99.90;;;;;;5056350;28;20029;-74
2023/01/28 00:28:26;;;;;;;1999.90;999.90;;;1.70;99.90;;;;;;5056594;28;20018;-74
2023/01/28 00:30:52;;;;;;;1999.90;999.90;;;1.70;99.90;;;;;;5056659;28;20087;-73
2023/01/28 00:33:18;;;;;;;1999.90;999.90;;;1.70;99.90;;;;;;5055095;28;20560;-74
2023/01/28 00:35:43;;;;;;;1999.90;999.90;;;1.70;99.90;;;;;;5056721;28;20044;-74
2023/01/28 00:38:09;;;;;;;1999.90;999.90;;;1.60;99.90;;;;;;5055967;28;20044;-74
2023/01/28 00:40:35;;;;;;;1999.90;999.90;;;1.60;99.90;;;;;;5056156;28;20041;-73
2023/01/28 00:43:01;;;;;;;1999.90;999.90;;;1.60;99.90;;;;;;5055859;28;20029;-74
2023/01/28 00:45:27;;;;;;;1999.90;999.90;;;1.60;99.90;;;;;;5055900;28;20336;-74
2023/01/28 00:47:52;;;;;;;1999.90;999.90;;;1.60;99.90;;;;;;5055955;28;20040;-74
2023/01/28 00:50:20;;;;;;;1999.90;999.90;;;1.60;99.90;;;;;;5055660;28;20494;-73
2023/01/28 00:52:46;;;;;;;1999.90;999.90;;;1.60;99.90;;;;;;5056053;28;20030;-74
2023/01/28 00:55:11;;;;;;;1999.90;999.90;;;1.70;99.90;;;;;;5055713;28;20125;-74
2023/01/28 00:57:37;;;;;;;1999.90;999.90;;;1.70;99.90;;;;;;5055376;28;20113;-74
2023/01/28 01:00:04;;;;;;;1999.90;999.90;;;1.70;99.90;;;;;;5055390;28;20373;-74
2023/01/28 01:02:30;;;;;;;1999.90;999.90;;;1.70;99.90;;;;;;5054919;28;20041;-74
2023/01/28 01:04:58;;;;;;;1999.90;999.90;;;1.70;99.90;;;;;;5054599;28;20120;-74
2023/01/28 01:07:42;;;;;;;1999.90;999.90;;;1.70;99.90;;;;;;5052834;28;20087;-74
2023/01/28 01:10:13;;;;;;;1999.90;999.90;;;1.70;99.90;;;;;;5054495;28;20037;-74
2023/01/28 01:12:38;;;;;;;1999.90;999.90;;;1.70;99.90;;;;;;5054391;28;20140;-74
2023/01/28 01:15:09;;;;;;;1999.90;999.90;;;1.70;99.90;;;;;;5052978;28;20487;-74
2023/01/28 01:17:39;;;;;;;1999.90;999.90;;;1.70;99.90;;;;;;5052871;28;20129;-74
2023/01/28 01:20:07;;;;;;;1999.90;999.90;;;1.70;99.90;;;;;;5053895;28;20483;-74
2023/01/28 01:22:34;;;;;;;1999.90;999.90;;;1.80;99.90;;;;;;5054171;28;20030;-74
2023/01/28 01:25:00;;;;;;;1999.90;999.90;;;1.80;99.90;;;;;;5053810;28;20114;-74
2023/01/28 01:27:25;;;;;;;1999.90;999.90;;;1.80;99.90;;;;;;5054121;28;20033;-74
2023/01/28 01:29:51;;;;;;;1999.90;999.90;;;1.80;99.90;;;;;;5054083;28;20088;-74
2023/01/28 01:32:17;;;;;;;1999.90;999.90;;;1.80;99.90;;;;;;5054329;28;20083;-74
2023/01/28 01:34:43;;;;;;;1999.90;999.90;;;1.80;99.90;;;;;;5054178;28;20030;-74
2023/01/28 01:37:09;;;;;;;1999.90;999.90;;;1.80;99.90;;;;;;5053965;28;20151;-74
2023/01/28 01:39:35;;;;;;;1999.90;999.90;;;1.80;99.90;;;;;;5054135;28;20033;-74
2023/01/28 01:42:01;;;;;;;1999.90;999.90;;;1.80;99.90;;;;;;5053998;28;20037;-74
2023/01/28 01:44:59;;;;;;;1999.90;999.90;;;1.80;99.90;;;;;;5054268;28;20040;-74
2023/01/28 01:47:47;;;;;;;1999.90;999.90;;;1.80;99.90;;;;;;5054004;28;20026;-74
2023/01/28 01:50:25;;;;;;;1999.90;999.90;;;1.90;99.90;;;;;;5052067;28;20040;-74
2023/01/28 01:52:56;;;;;;;1999.90;999.90;;;1.90;99.90;;;;;;5053567;28;20474;-74
2023/01/28 01:55:24;;;;;;;1999.90;999.90;;;1.90;99.90;;;;;;5053891;28;20121;-74
2023/01/28 01:57:53;;;;;;;1999.90;999.90;;;1.90;99.90;;;;;;5053751;28;20040;-74
2023/01/28 02:00:18;;;;;;;1999.90;999.90;;;1.90;99.90;;;;;;5053583;28;20481;-74
2023/01/28 02:02:47;;;;;;;1999.90;999.90;;;1.90;99.90;;;;;;5052279;28;20038;-74
2023/01/28 02:05:17;;;;;;;1999.90;999.90;;;1.90;99.90;;;;;;5053916;28;20032;-74
2023/01/28 02:07:44;;;;;;;1999.90;999.90;;;1.90;99.90;;;;;;5053585;28;20117;-74
2023/01/28 02:10:12;;;;;;;1999.90;999.90;;;1.90;99.90;;;;;;5052008;28;20065;-74
2023/01/28 02:12:42;;;;;;;1999.90;999.90;;;1.90;99.90;;;;;;5053843;28;20029;-74
2023/01/28 02:15:10;;;;;;;1999.90;999.90;;;1.90;99.90;;;;;;5053464;28;20116;-74
2023/01/28 02:17:37;;;;;;;1999.90;999.90;;;1.80;99.90;;;;;;5053477;28;20033;-74
2023/01/28 02:20:18;;;;;;;1999.90;999.90;;;1.90;99.90;;;;;;5053601;28;20088;-74
2023/01/28 02:23:13;;;;;;;1999.90;999.90;;;1.90;99.90;;;;;;5053811;28;20079;-74
2023/01/28 02:26:00;;;;;;;1999.90;999.90;;;1.90;99.90;;;;;;5053258;28;20037;-74
2023/01/28 02:28:54;;;;;;;1999.90;999.90;;;1.80;99.90;;;;;;5053676;28;20120;-74
2023/01/28 02:31:55;;;;;;;1999.90;999.90;;;1.80;99.90;;;;;;5045796;28;20095;-74
2023/01/28 02:34:31;;;;;;;1999.90;999.90;;;1.90;99.90;;;;;;5018441;28;20045;-74
2023/01/28 02:37:21;;;;;;;1999.90;999.90;;;1.90;99.90;;;;;;5056770;28;20083;-74
2023/01/28 02:39:56;;;;;;;1999.90;999.90;;;1.80;99.90;;;;;;5056730;28;20049;-74
2023/01/28 02:42:29;;;;;;;1999.90;999.90;;;1.80;99.90;;;;;;5056883;28;20506;-74
2023/01/28 02:44:55;;;;;;;1999.90;999.90;;;1.80;99.90;;;;;;5056314;28;20033;-74
2023/01/28 02:50:10;;;;;;;1999.90;999.90;;;1.80;99.90;;;;;;5056153;28;20038;-74
2023/01/28 02:55:51;;;;;;;1999.90;999.90;;;1.80;99.90;;;;;;5053402;28;20037;-73
2023/01/28 02:58:41;;;;;;;1999.90;999.90;;;1.80;99.90;;;;;;5054428;28;20109;-73
2023/01/28 03:01:21;;;;;;;1999.90;999.90;;;1.80;99.90;;;;;;5056215;28;20136;-73
2023/01/28 03:04:02;;;;;;;1999.90;999.90;;;1.80;99.90;;;;;;5056604;28;20573;-73
2023/01/28 03:06:34;;;;;;;1999.90;999.90;;;1.80;99.90;;;;;;5056234;28;20069;-73
2023/01/28 03:09:21;;;;;;;1999.90;999.90;;;1.90;99.90;;;;;;5054695;28;20029;-73
2023/01/28 03:38:21;;;;;;;1999.90;999.90;;;1.90;99.90;;;;;;5053052;28;20033;-73
2023/01/28 03:40:59;;;;;;;1999.90;999.90;;;1.90;99.90;;;;;;5053998;28;20029;-73
2023/01/28 03:43:25;;;;;;;1999.90;999.90;;;1.90;99.90;;;;;;5055615;28;20017;-73
2023/01/28 03:45:51;;;;;;;1999.90;999.90;;;1.90;99.90;;;;;;5055530;28;20045;-73
2023/01/28 03:48:22;;;;;;;1999.90;999.90;;;1.90;99.90;;;;;;5054009;28;20156;-73
2023/01/28 03:50:49;;;;;;;1999.90;999.90;;;1.80;99.90;;;;;;5055127;28;20187;-73
2023/01/28 03:53:15;;;;;;;1999.90;999.90;;;1.80;99.90;;;;;;5055699;28;20095;-73
2023/01/28 03:55:41;;;;;;;1999.90;999.90;;;1.80;99.90;;;;;;5055337;28;20037;-73
2023/01/28 03:58:08;;;;;;;1999.90;999.90;;;1.80;99.90;;;;;;5055439;28;20034;-73
2023/01/28 04:00:40;;;;;;;1999.90;999.90;;;1.80;99.90;;;;;;5055292;28;20048;-73
2023/01/28 04:03:17;;;;;;;1999.90;999.90;;;1.80;99.90;;;;;;5055484;28;20036;-73
2023/01/28 04:06:03;;;;;;;1999.90;999.90;;;1.70;99.90;;;;;;5055454;28;20065;-73
2023/01/28 04:08:28;;;;;;;1999.90;999.90;;;1.70;99.90;;;;;;5054830;28;20045;-73
2023/01/28 04:10:54;;;;;;;1999.90;999.90;;;1.70;99.90;;;;;;5053593;28;20033;-73
2023/01/28 04:13:20;;;;;;;1999.90;999.90;;;1.60;99.90;;;;;;5055273;28;20037;-73
2023/01/28 04:15:46;;;;;;;1999.90;999.90;;;1.60;99.90;;;;;;5055186;28;20034;-73
2023/01/28 04:18:12;;;;;;;1999.90;999.90;;;1.60;99.90;;;;;;5054924;28;20564;-73
2023/01/28 04:20:38;;;;;;;1999.90;999.90;;;1.60;99.90;;;;;;5054778;28;20052;-73
2023/01/28 04:23:05;;;;;;;1999.90;999.90;;;1.50;99.90;;;;;;5055101;28;20053;-73
2023/01/28 04:25:31;;;;;;;1999.90;999.90;;;1.50;99.90;;;;;;5054955;28;20033;-73
2023/01/28 04:27:56;;;;;;;1999.90;999.90;;;1.50;99.90;;;;;;5054767;28;20418;-73
2023/01/28 04:30:22;;;;;;;1999.90;999.90;;;1.50;99.90;;;;;;5054847;28;20095;-73
2023/01/28 04:32:51;;;;;;;1999.90;999.90;;;1.40;99.90;;;;;;5053444;28;20030;-73
2023/01/28 04:35:17;;;;;;;1999.90;999.90;;;1.40;99.90;;;;;;5054872;28;20037;-73
2023/01/28 04:37:43;;;;;;;1999.90;999.90;;;1.40;99.90;;;;;;5054290;28;20763;-73
2023/01/28 04:40:11;;;;;;;1999.90;999.90;;;1.30;99.90;;;;;;5054796;28;20037;-73
2023/01/28 04:42:36;;;;;;;1999.90;999.90;;;1.30;99.90;;;;;;5054983;28;20030;-73
2023/01/28 04:45:02;;;;;;;1999.90;999.90;;;1.30;99.90;;;;;;5054729;28;20038;-73
2023/01/28 04:47:28;;;;;;;1999.90;999.90;;;1.30;99.90;;;;;;5054477;28;20033;-73
2023/01/28 04:49:53;;;;;;;1999.90;999.90;;;1.30;99.90;;;;;;5054486;28;20091;-73
2023/01/28 04:52:19;;;;;;;1999.90;999.90;;;1.30;99.90;;;;;;5053020;28;20442;-73
2023/01/28 04:54:45;;;;;;;1999.90;999.90;;;1.20;99.90;;;;;;5053872;28;20495;-73
2023/01/28 04:57:10;;;;;;;1999.90;999.90;;;1.20;99.90;;;;;;5054499;28;20034;-72
2023/01/28 04:59:36;;;;;;;1999.90;999.90;;;1.20;99.90;;;;;;5054543;28;20042;-73
2023/01/28 05:02:02;;;;;;;1999.90;999.90;;;1.10;99.90;;;;;;5054227;28;20033;-73
2023/01/28 05:04:27;;;;;;;1999.90;999.90;;;1.10;99.90;;;;;;5054481;28;20038;-72
2023/01/28 05:06:53;;;;;;;1999.90;999.90;;;1.10;99.90;;;;;;5053979;28;20506;-73
2023/01/28 05:09:18;;;;;;;1999.90;999.90;;;1.10;99.90;;;;;;5053097;28;20048;-73
2023/01/28 05:11:44;;;;;;;1999.90;999.90;;;1.10;99.90;;;;;;5052702;28;20471;-73
2023/01/28 05:14:09;;;;;;;1999.90;999.90;;;1.10;99.90;;;;;;5054550;28;20034;-73
2023/01/28 05:16:35;;;;;;;1999.90;999.90;;;1.10;99.90;;;;;;5052409;28;20034;-72
2023/01/28 05:19:01;;;;;;;1999.90;999.90;;;1.10;99.90;;;;;;5054320;28;20034;-72
2023/01/28 05:21:27;;;;;;;1999.90;999.90;;;1.10;99.90;;;;;;5053584;28;20046;-72
2023/01/28 05:23:53;;;;;;;1999.90;999.90;;;1.10;99.90;;;;;;5054285;28;20391;-73
2023/01/28 05:26:19;;;;;;;1999.90;999.90;;;1.10;99.90;;;;;;5053624;28;20038;-73
2023/01/28 05:28:45;;;;;;;1999.90;999.90;;;1.10;99.90;;;;;;5054074;28;20061;-73
2023/01/28 05:31:11;;;;;;;1999.90;999.90;;;1.10;99.90;;;;;;5053990;28;20061;-73
2023/01/28 05:33:37;;;;;;;1999.90;999.90;;;1.10;99.90;;;;;;5054205;28;20034;-73
2023/01/28 05:36:03;;;;;;;1999.90;999.90;;;1.10;99.90;;;;;;5053882;28;20037;-73
2023/01/28 05:38:28;;;;;;;1999.90;999.90;;;1.20;99.90;;;;;;5054049;28;20582;-73
2023/01/28 05:40:54;;;;;;;1999.90;999.90;;;1.20;99.90;;;;;;5053956;28;20041;-72
2023/01/28 05:43:20;;;;;;;1999.90;999.90;;;1.20;99.90;;;;;;5054094;28;20061;-73
2023/01/28 05:45:46;;;;;;;1999.90;999.90;;;1.20;99.90;;;;;;5053958;28;20063;-73
2023/01/28 05:48:12;;;;;;;1999.90;999.90;;;1.20;99.90;;;;;;5053954;28;20476;-73
2023/01/28 05:50:37;;;;;;;1999.90;999.90;;;1.20;99.90;;;;;;5053516;28;20045;-73
2023/01/28 05:53:06;;;;;;;1999.90;999.90;;;1.20;99.90;;;;;;5052361;28;20503;-73
2023/01/28 05:55:32;;;;;;;1999.90;999.90;;;1.20;99.90;;;;;;5053698;28;20415;-73
2023/01/28 05:57:58;;;;;;;1999.90;999.90;;;1.20;99.90;;;;;;5053507;28;20029;-73
2023/01/28 06:00:23;;;;;;;1999.90;999.90;;;1.20;99.90;;;;;;5053581;28;20515;-72
2023/01/28 06:02:51;;;;;;;1999.90;999.90;;;1.20;99.90;;;;;;5053597;28;20072;-73
2023/01/28 06:05:17;;;;;;;1999.90;999.90;;;1.20;99.90;;;;;;5052112;28;20034;-73
2023/01/28 06:07:46;;;;;;;1999.90;999.90;;;1.20;99.90;;;;;;5055411;28;20470;-72
2023/01/28 06:10:13;;;;;;;1999.90;999.90;;;1.20;99.90;;;;;;5056839;28;20033;-73
2023/01/28 06:12:39;;;;;;;1999.90;999.90;;;1.20;99.90;;;;;;5057161;28;20442;-73
2023/01/28 06:15:05;;;;;;;1999.90;999.90;;;1.30;99.90;;;;;;5056674;28;20526;-73
2023/01/28 06:17:31;;;;;;;1999.90;999.90;;;1.20;99.90;;;;;;5056586;28;20421;-73
2023/01/28 06:19:56;;;;;;;1999.90;999.90;;;1.20;99.90;;;;;;5056789;28;20038;-72
2023/01/28 06:22:22;;;;;;;1999.90;999.90;;;1.20;99.90;;;;;;5057020;28;20041;-73
2023/01/28 06:24:47;;;;;;;1999.90;999.90;;;1.20;99.90;;;;;;5056551;28;20398;-72
2023/01/28 06:27:13;;;;;;;1999.90;999.90;;;1.20;99.90;;;;;;5056469;28;20406;-73
2023/01/28 06:29:38;;;;;;;1999.90;999.90;;;1.20;99.90;;;;;;5055206;28;20037;-72
2023/01/28 06:32:04;;;;;;;1999.90;999.90;;;1.20;99.90;;;;;;5055108;28;20049;-73
2023/01/28 06:34:30;;;;;;;1999.90;999.90;;;1.20;99.90;;;;;;5056532;28;20026;-73
2023/01/28 06:36:56;;;;;;;1999.90;999.90;;;1.10;99.90;;;;;;5054719;28;20080;-73
2023/01/28 06:39:21;;;;;;;1999.90;999.90;;;1.20;99.90;;;;;;5055299;28;20021;-73
2023/01/28 06:41:50;;;;;;;1999.90;999.90;;;1.20;99.90;;;;;;5056540;28;20045;-70
2023/01/28 06:44:16;;;;;;;1999.90;999.90;;;1.20;99.90;;;;;;5056433;28;20127;-70
2023/01/28 06:46:41;;;;;;;1999.90;999.90;;;1.20;99.90;;;;;;5056121;28;20502;-69
2023/01/28 06:49:07;;;;;;;1999.90;999.90;;;1.20;99.90;;;;;;5056194;28;20563;-70
2023/01/28 06:51:33;;;;;;;1999.90;999.90;;;1.30;99.90;;;;;;5055800;28;20041;-70
2023/01/28 06:53:58;;;;;;;1999.90;999.90;;;1.20;99.90;;;;;;5056369;28;20448;-70
2023/01/28 06:56:24;;;;;;;1999.90;999.90;;;1.20;99.90;;;;;;5055709;28;20045;-71
2023/01/28 06:58:50;;;;;;;1999.90;999.90;;;1.30;99.90;;;;;;5056958;28;20065;-70
2023/01/28 07:01:16;;;;;;;1999.90;999.90;;;1.20;99.90;;;;;;5073871;28;20128;-70
2023/01/28 07:03:41;;;;;;;1999.90;999.90;;;1.20;99.90;;;;;;5076523;28;20033;-70
2023/01/28 07:06:07;;;;;;;1999.90;999.90;;;1.30;99.90;;;;;;5076268;28;20065;-70
2023/01/28 07:08:33;;;;;;;1999.90;999.90;;;1.30;99.90;;;;;;5076353;28;20059;-69
2023/01/28 07:10:59;;;;;;;1999.90;999.90;;;1.20;99.90;;;;;;5076027;28;20040;-70
2023/01/28 07:13:25;;;;;;;1999.90;999.90;;;1.30;99.90;;;;;;5076161;28;20025;-73
2023/01/28 07:15:50;;;;;;;1999.90;999.90;;;1.40;99.90;;;;;;5075766;28;20083;-70
2023/01/28 07:18:16;;;;;;;1999.90;999.90;;;1.30;99.90;;;;;;5075638;28;20112;-71
2023/01/28 07:20:42;;;;;;;1999.90;999.90;;;1.40;99.90;;;;;;5076030;28;20029;-70
2023/01/28 07:23:07;;;;;;;1999.90;999.90;;;1.40;99.90;;;;;;5076323;28;20040;-71
2023/01/28 07:25:33;;;;;;;1999.90;999.90;;;1.40;99.90;;;;;;5076020;28;20045;-70
2023/01/28 07:27:58;;;;;;;1999.90;999.90;;;1.50;99.90;;;;;;5076040;28;20708;-70
2023/01/28 07:30:24;;;;;;;1999.90;999.90;;;1.50;99.90;;;;;;5075824;28;20514;-71
2023/01/28 07:32:58;;;;;;;1999.90;999.90;;;1.40;99.90;;;;;;5074266;28;20044;-71
2023/01/28 07:35:25;;;;;;;1999.90;999.90;;;1.50;99.90;;;;;;5075713;28;20064;-71
2023/01/28 07:37:52;;;;;;;1999.90;999.90;;;1.50;99.90;;;;;;5074505;28;20566;-71
2023/01/28 07:40:18;;;;;;;1999.90;999.90;;;1.50;99.90;;;;;;5075754;28;20037;-71
2023/01/28 07:42:43;;;;;;;1999.90;999.90;;;1.50;99.90;;;;;;5075830;28;20040;-71
2023/01/28 07:45:10;;;;;;;1999.90;999.90;;;1.60;99.90;;;;;;5073800;28;20044;-71
2023/01/28 07:47:35;;;;;;;1999.90;999.90;;;1.60;99.90;;;;;;5075849;28;20040;-71
2023/01/28 07:50:01;;;;;;;1999.90;999.90;;;1.60;99.90;;;;;;5075033;28;20040;-71
2023/01/28 07:52:26;;;;;;;1999.90;999.90;;;1.50;99.90;;;;;;5075464;28;20041;-71
2023/01/28 07:54:52;;;;;;;1999.90;999.90;;;1.50;99.90;;;;;;5075595;28;20037;-70
2023/01/28 07:57:22;;;;;;;1999.90;999.90;;;1.50;99.90;;;;;;5075502;28;20063;-72
2023/01/28 07:59:49;;;;;;;1999.90;999.90;;;1.60;99.90;;;;;;5075242;28;20037;-71
2023/01/28 08:02:15;;;;;;;1999.90;999.90;;;1.60;99.90;;;;;;5075611;28;20055;-72
2023/01/28 08:04:41;;;;;;;1999.90;999.90;;;1.60;99.90;;;;;;5073903;28;20028;-71
2023/01/28 08:07:06;;;;;;;1999.90;999.90;;;1.60;99.90;;;;;;5066032;28;20091;-71
2023/01/28 08:09:35;;;;;;;1999.90;999.90;;;1.70;99.90;;;;;;5054791;28;20065;-71
2023/01/28 08:12:01;;;;;;;1999.90;999.90;;;1.70;99.90;;;;;;5054996;28;20100;-72
2023/01/28 08:14:27;;;;;;;1999.90;999.90;;;1.80;99.90;;;;;;5054826;28;20471;-73
2023/01/28 08:16:53;;;;;;;1999.90;999.90;;;1.70;99.90;;;;;;5054670;28;20087;-72
2023/01/28 08:19:20;;;;;;;1999.90;999.90;;;1.80;99.90;;;;;;5054941;28;20442;-72
2023/01/28 08:21:49;;;;;;;1999.90;999.90;;;1.80;99.90;;;;;;5054736;28;20463;-72
2023/01/28 08:24:15;;;;;;;1999.90;999.90;;;1.90;99.90;;;;;;5055250;28;20029;-72
2023/01/28 08:26:40;;;;;;;1999.90;999.90;;;2.00;99.90;;;;;;5054878;28;20113;-72
2023/01/28 08:29:06;;;;;;;1999.90;999.90;;;2.00;99.90;;;;;;5054037;28;20087;-75
2023/01/28 08:31:31;;;;;;;1999.90;999.90;;;2.10;99.90;;;;;;5054329;28;20037;-72
2023/01/28 08:33:57;;;;;;;1999.90;999.90;;;2.10;99.90;;;;;;5055052;28;20034;-72
2023/01/28 08:36:22;;;;;;;1999.90;999.90;;;2.20;99.90;;;;;;5054340;28;20030;-73
2023/01/28 08:38:53;;;;;;;1999.90;999.90;;;2.10;99.90;;;;;;5054766;28;20056;-74
2023/01/28 08:41:22;;;;;;;1999.90;999.90;;;2.20;99.90;;;;;;5052867;28;20042;-73
2023/01/28 08:43:48;;;;;;;1999.90;999.90;;;2.20;99.90;;;;;;5053074;28;20025;-71
2023/01/28 08:46:14;;;;;;;1999.90;999.90;;;2.10;99.90;;;;;;5054333;28;20033;-71
2023/01/28 08:48:40;;;;;;;1999.90;999.90;;;2.10;99.90;;;;;;5053022;28;20038;-71
2023/01/28 08:51:05;;;;;;;1999.90;999.90;;;2.20;99.90;;;;;;5054708;28;20053;-71
2023/01/28 08:53:31;;;;;;;1999.90;999.90;;;2.20;99.90;;;;;;5054948;28;20026;-71
2023/01/28 08:55:56;;;;;;;1999.90;999.90;;;2.20;99.90;;;;;;5053598;28;20045;-72
2023/01/28 08:58:22;;;;;;;1999.90;999.90;;;2.10;99.90;;;;;;5053252;28;20123;-72
2023/01/28 09:00:49;;;;;;;1999.90;999.90;;;2.10;99.90;;;;;;5051382;28;20049;-72
2023/01/28 09:03:15;;;;;;;1999.90;999.90;;;2.20;99.90;;;;;;5050865;28;20037;-74
2023/01/28 09:05:41;;;;;;;1999.90;999.90;;;2.10;99.90;;;;;;5053158;28;20053;-72
2023/01/28 09:08:17;;;;;;;1999.90;999.90;;;2.20;99.90;;;;;;5053820;28;20431;-72
2023/01/28 09:10:42;;;;;;;1999.90;999.90;;;2.20;99.90;;;;;;5053853;28;20029;-74
2023/01/28 09:13:14;;;;;;;1999.90;999.90;;;2.20;99.90;;;;;;5054074;28;20040;-73
2023/01/28 09:15:40;;;;;;;1999.90;999.90;;;2.20;99.90;;;;;;5050530;28;20529;-73
2023/01/28 09:18:06;;;;;;;1999.90;999.90;;;2.20;99.90;;;;;;5053905;28;20415;-74
2023/01/28 09:20:32;;;;;;;1999.90;999.90;;;2.20;99.90;;;;;;5052053;28;20037;-73
2023/01/28 09:22:59;;;;;;;1999.90;999.90;;;2.20;99.90;;;;;;5054280;28;20095;-74
2023/01/28 09:25:25;;;;;;;1999.90;999.90;;;2.20;99.90;;;;;;5053912;28;20112;-73
2023/01/28 09:27:51;;;;;;;1999.90;999.90;;;2.20;99.90;;;;;;5052531;28;20464;-73
2023/01/28 09:30:16;;;;;;;1999.90;999.90;;;2.30;99.90;;;;;;5052058;28;20124;-72
2023/01/28 09:32:42;;;;;;;1999.90;999.90;;;2.30;99.90;;;;;;5052379;28;20033;-72
2023/01/28 09:35:09;;;;;;;1999.90;999.90;;;2.30;99.90;;;;;;5052357;28;20517;-73
2023/01/28 09:37:34;;;;;;;1999.90;999.90;;;2.30;99.90;;;;;;5053682;28;20057;-73
2023/01/28 09:40:00;;;;;;;1999.90;999.90;;;2.20;99.90;;;;;;5053732;28;20753;-72
2023/01/28 09:42:58;;;;;;;1999.90;999.90;;;2.20;99.90;;;;;;5057126;28;20029;-72
2023/01/28 09:45:36;;;;;;;1999.90;999.90;;;2.20;99.90;;;;;;5041218;28;20439;-72
2023/01/28 09:48:05;;;;;;;1999.90;999.90;;;2.10;99.90;;;;;;5057414;28;20032;-72
2023/01/28 09:50:37;;;;;;;1999.90;999.90;;;2.10;99.90;;;;;;5056817;28;20037;-72
2023/01/28 09:53:24;;;;;;;1999.90;999.90;;;2.00;99.90;;;;;;5055923;28;20029;-72
2023/01/28 09:55:50;;;;;;;1999.90;999.90;;;1.90;99.90;;;;;;5056717;28;20121;-73
2023/01/28 09:58:17;;;;;;;1999.90;999.90;;;2.00;99.90;;;;;;5052376;28;20105;-74
2023/01/28 10:01:20;;;;;;;1999.90;999.90;;;2.00;99.90;;;;;;5057082;28;20120;-72
2023/01/28 10:04:16;;;;;;;1999.90;999.90;;;2.10;99.90;;;;;;5057127;28;20059;-71
2023/01/28 10:07:08;;;;;;;1999.90;999.90;;;2.20;99.90;;;;;;5056675;28;20041;-71
2023/01/28 10:10:05;;;;;;;1999.90;999.90;;;2.20;99.90;;;;;;5056409;28;20037;-71
2023/01/28 10:12:30;;;;;;;1999.90;999.90;;;2.40;99.90;;;;;;5056814;28;20037;-71
2023/01/28 10:15:22;;;;;;;1999.90;999.90;;;2.50;99.90;;;;;;5056590;28;20506;-71
2023/01/28 10:17:50;;;;;;;1999.90;999.90;;;2.50;99.90;;;;;;5056959;28;20045;-71
2023/01/28 10:20:27;;;;;;;1999.90;999.90;;;2.60;99.90;;;;;;5056576;28;20426;-71
2023/01/28 10:23:30;;;;;;;1999.90;999.90;;;2.70;99.90;;;;;;5056991;28;20104;-71
2023/01/28 10:25:58;;;;;;;1999.90;999.90;;;2.80;99.90;;;;;;5055144;28;20095;-71
2023/01/28 10:28:27;;;;;;;1999.90;999.90;;;2.70;99.90;;;;;;5056855;28;20085;-71
2023/01/28 10:30:53;;;;;;;1999.90;999.90;;;2.70;99.90;;;;;;5056379;28;20545;-71
2023/01/28 10:33:21;;;;;;;1999.90;999.90;;;2.70;99.90;;;;;;5056765;28;20048;-71
2023/01/28 10:35:47;;;;;;;1999.90;999.90;;;2.60;99.90;;;;;;5056558;28;20037;-71
2023/01/28 10:38:16;;;;;;;1999.90;999.90;;;2.60;99.90;;;;;;5056536;28;20029;-71
2023/01/28 10:40:42;;;;;;;1999.90;999.90;;;2.70;99.90;;;;;;5056247;28;20495;-71
2023/01/28 10:43:08;;;;;;;1999.90;999.90;;;2.70;99.90;;;;;;5056752;28;20033;-71
2023/01/28 10:45:48;;;;;;;1999.90;999.90;;;2.80;99.90;;;;;;5056532;28;20033;-71
2023/01/28 10:48:22;;;;;;;1999.90;999.90;;;2.70;99.90;;;;;;5056557;28;20033;-71
2023/01/28 10:50:58;;;;;;;1999.90;999.90;;;2.60;99.90;;;;;;5054600;28;20045;-71
2023/01/28 10:53:38;;;;;;;1999.90;999.90;;;2.70;99.90;;;;;;5055747;28;20022;-71
2023/01/28 10:56:23;;;;;;;1999.90;999.90;;;2.70;99.90;;;;;;5056452;28;20041;-71
2023/01/28 10:59:16;;;;;;;1999.90;999.90;;;2.80;99.90;;;;;;5056399;28;20033;-71
2023/01/28 11:01:55;;;;;;;1999.90;999.90;;;2.80;99.90;;;;;;5055687;28;20041;-71
2023/01/28 11:04:32;;;;;;;1999.90;999.90;;;2.80;99.90;;;;;;5056069;28;20030;-71
2023/01/28 11:07:02;;;;;;;1999.90;999.90;;;2.80;99.90;;;;;;5056104;28;20041;-71
2023/01/28 11:09:36;;;;;;;1999.90;999.90;;;2.70;99.90;;;;;;5056552;28;20040;-71
2023/01/28 11:12:18;;;;;;;1999.90;999.90;;;2.80;99.90;;;;;;5055668;28;20034;-71
2023/01/28 11:14:52;;;;;;;1999.90;999.90;;;2.70;99.90;;;;;;5054416;28;20029;-71
2023/01/28 11:17:20;;;;;;;1999.90;999.90;;;2.70;99.90;;;;;;5055954;28;20037;-71
2023/01/28 11:19:45;;;;;;;1999.90;999.90;;;2.80;99.90;;;;;;5056072;28;20029;-71
2023/01/28 11:22:34;;;;;;;1999.90;999.90;;;2.70;99.90;;;;;;5056171;28;20037;-71
2023/01/28 11:25:03;;;;;;;1999.90;999.90;;;2.60;99.90;;;;;;5056166;28;20021;-71
2023/01/28 11:27:30;;;;;;;1999.90;999.90;;;2.70;99.90;;;;;;5055416;28;20033;-71
2023/01/28 11:30:00;;;;;;;1999.90;999.90;;;2.60;99.90;;;;;;5054303;28;20804;-71
2023/01/28 11:32:28;;;;;;;1999.90;999.90;;;2.50;99.90;;;;;;5054478;28;20038;-71
2023/01/28 11:34:56;;;;;;;1999.90;999.90;;;2.50;99.90;;;;;;5055848;28;20087;-71
2023/01/28 11:37:23;;;;;;;1999.90;999.90;;;2.40;99.90;;;;;;5055797;28;20084;-71
2023/01/28 11:40:13;;;;;;;1999.90;999.90;;;2.50;99.90;;;;;;5054273;28;20833;-71
2023/01/28 11:42:38;;;;;;;1999.90;999.90;;;2.50;99.90;;;;;;5055516;28;20549;-71
2023/01/28 11:45:15;;;;;;;1999.90;999.90;;;2.40;99.90;;;;;;5055570;28;20045;-71
2023/01/28 11:48:18;;;;;;;1999.90;999.90;;;2.40;99.90;;;;;;5055717;28;20068;-71
2023/01/28 11:50:51;;;;;;;1999.90;999.90;;;2.30;99.90;;;;;;5055420;28;20056;-71
2023/01/28 11:53:26;;;;;;;1999.90;999.90;;;2.40;99.90;;;;;;5055658;28;20041;-71
2023/01/28 11:56:19;;;;;;;1999.90;999.90;;;2.40;99.90;;;;;;5055588;28;20040;-71
2023/01/28 11:58:53;;;;;;;1999.90;999.90;;;2.50;99.90;;;;;;5053964;28;20511;-71
2023/01/28 12:01:21;;;;;;;1999.90;999.90;;;2.50;99.90;;;;;;5055166;28;20056;-71
2023/01/28 12:04:03;;;;;;;1999.90;999.90;;;2.60;99.90;;;;;;5055294;28;20032;-71
2023/01/28 12:06:49;;;;;;;1999.90;999.90;;;2.50;99.90;;;;;;5053582;28;20474;-71
2023/01/28 12:09:29;;;;;;;1999.90;999.90;;;2.50;99.90;;;;;;5055536;28;20030;-71
2023/01/28 12:12:10;;;;;;;1999.90;999.90;;;2.50;99.90;;;;;;5055213;28;20450;-71
2023/01/28 12:15:07;;;;;;;1999.90;999.90;;;2.60;99.90;;;;;;5053687;28;20482;-71
2023/01/28 12:17:47;;;;;;;1999.90;999.90;;;2.60;99.90;;;;;;5055035;28;20415;-71
2023/01/28 12:20:18;;;;;;;1999.90;999.90;;;2.60;99.90;;;;;;5053271;28;20036;-71
2023/01/28 12:23:09;;;;;;;1999.90;999.90;;;2.60;99.90;;;;;;5055381;28;20025;-71
2023/01/28 12:26:01;;;;;;;1999.90;999.90;;;2.60;99.90;;;;;;5054801;28;20048;-71
2023/01/28 12:28:48;;;;;;;1999.90;999.90;;;2.50;99.90;;;;;;5054777;28;20506;-71
2023/01/28 12:31:41;;;;;;;1999.90;999.90;;;2.60;99.90;;;;;;5054952;28;20037;-71
2023/01/28 12:34:38;;;;;;;1999.90;999.90;;;2.70;99.90;;;;;;5055115;28;20152;-71
2023/01/28 12:37:24;;;;;;;1999.90;999.90;;;2.60;99.90;;;;;;5054823;28;20037;-71
2023/01/28 12:40:04;;;;;;;1999.90;999.90;;;2.60;99.90;;;;;;5053081;28;20040;-71
2023/01/28 12:42:36;;;;;;;1999.90;999.90;;;2.60;99.90;;;;;;5053429;28;20056;-71
2023/01/28 12:45:30;;;;;;;1999.90;999.90;;;2.60;99.90;;;;;;5052783;28;20537;-71
2023/01/28 12:48:05;;;;;;;1999.90;999.90;;;2.70;99.90;;;;;;5054631;28;20030;-71
2023/01/28 12:50:45;;;;;;;1999.90;999.90;;;2.70;99.90;;;;;;5053858;28;20510;-71
2023/01/28 12:53:20;;;;;;;1999.90;999.90;;;2.70;99.90;;;;;;5054473;28;20364;-71
2023/01/28 12:55:55;;;;;;;1999.90;999.90;;;2.60;99.90;;;;;;5053083;28;20034;-71
2023/01/28 12:58:39;;;;;;;1999.90;999.90;;;2.70;99.90;;;;;;5053035;28;20044;-71